createdAt,value
2022-12-16T00:02:28.107Z,2.27
2022-12-16T00:05:15.733Z,2.72
2022-12-16T00:08:03.290Z,4.42
2022-12-16T00:10:50.895Z,7.28
2022-12-16T00:13:38.477Z,11.12
2022-12-16T00:16:26.113Z,11.65
2022-12-16T00:19:13.770Z,13.11
2022-12-16T00:22:01.335Z,12.19
2022-12-16T00:24:48.876Z,12.82
2022-12-16T00:27:36.489Z,11.73
2022-12-16T00:30:24.087Z,9.97
2022-12-16T00:33:11.685Z,5.55
2022-12-16T00:35:59.246Z,3.45
2022-12-16T00:38:46.810Z,5.20
2022-12-16T00:41:34.389Z,7.12
2022-12-16T00:44:21.950Z,3.36
2022-12-16T00:47:09.524Z,3.96
2022-12-16T00:49:57.118Z,5.16
2022-12-16T00:52:44.722Z,2.58
2022-12-16T00:55:32.318Z,2.34
2022-12-16T00:58:19.864Z,2.41
2022-12-16T01:01:07.479Z,2.37
2022-12-16T01:03:55.261Z,2.39
2022-12-16T01:06:42.931Z,43.11
2022-12-16T01:09:30.534Z,48.23
2022-12-16T01:12:18.102Z,4.78
2022-12-16T01:15:05.695Z,4.20
2022-12-16T01:17:53.246Z,2.73
2022-12-16T01:20:42.920Z,46.84
2022-12-16T01:23:30.784Z,48.95
2022-12-16T01:26:18.570Z,38.73
2022-12-16T01:29:06.110Z,15.75
2022-12-16T01:31:53.702Z,18.49
2022-12-16T01:34:43.001Z,6.49
2022-12-16T01:37:30.556Z,2.58
2022-12-16T01:40:18.113Z,1.72
2022-12-16T01:43:05.698Z,1.64
2022-12-16T01:45:53.293Z,1.31
2022-12-16T01:48:40.896Z,1.23
2022-12-16T01:51:28.475Z,1.37
2022-12-16T01:54:16.048Z,1.40
2022-12-16T01:57:03.644Z,0.76
2022-12-16T01:59:51.209Z,0.72
2022-12-16T02:02:39.973Z,0.62
2022-12-16T02:05:27.554Z,0.85
2022-12-16T02:08:15.097Z,0.58
2022-12-16T02:11:02.655Z,0.60
2022-12-16T02:13:50.178Z,0.63
2022-12-16T02:16:39.473Z,0.81
2022-12-16T02:19:27.042Z,0.65
2022-12-16T02:22:14.614Z,1.04
2022-12-16T02:25:02.204Z,1.72
2022-12-16T02:27:49.764Z,2.12
2022-12-16T02:30:37.371Z,2.50
2022-12-16T02:33:24.955Z,2.70
2022-12-16T02:36:12.521Z,2.87
2022-12-16T02:39:00.100Z,3.30
2022-12-16T02:41:47.808Z,3.27
2022-12-16T02:44:35.458Z,3.11
2022-12-16T02:47:23.062Z,3.75
2022-12-16T02:50:10.644Z,3.91
2022-12-16T02:52:58.193Z,3.90
2022-12-16T02:55:45.758Z,3.26
2022-12-16T02:58:33.302Z,3.15
2022-12-16T03:01:22.972Z,2.98
2022-12-16T03:04:10.681Z,3.07
2022-12-16T03:06:58.312Z,2.60
2022-12-16T03:09:45.851Z,2.23
2022-12-16T03:12:33.414Z,2.16
2022-12-16T03:15:20.982Z,2.20
2022-12-16T03:18:08.569Z,2.16
2022-12-16T03:20:56.127Z,2.36
2022-12-16T03:23:43.696Z,2.38
2022-12-16T03:26:31.246Z,2.18
2022-12-16T03:29:18.811Z,2.15
2022-12-16T03:32:06.347Z,14.03
2022-12-16T03:34:54.022Z,8.86
2022-12-16T03:37:41.576Z,3.61
2022-12-16T03:40:29.158Z,26.10
2022-12-16T03:43:16.703Z,113.12
2022-12-16T03:46:04.362Z,85.53
2022-12-16T03:48:51.982Z,42.03
2022-12-16T03:51:39.579Z,27.67
2022-12-16T03:54:27.173Z,28.76
2022-12-16T03:57:15.658Z,12.71
2022-12-16T04:00:03.450Z,4.69
2022-12-16T04:02:51.301Z,5.19
2022-12-16T04:05:39.042Z,5.22
2022-12-16T04:08:26.592Z,3.69
2022-12-16T04:11:14.140Z,3.80
2022-12-16T04:14:21.811Z,7.75
2022-12-16T04:17:21.037Z,44.44
2022-12-16T04:20:08.611Z,40.56
2022-12-16T04:22:56.167Z,5.87
2022-12-16T04:25:43.744Z,8.68
2022-12-16T04:28:31.339Z,9.70
2022-12-16T04:31:18.989Z,6.25
2022-12-16T04:34:06.554Z,7.81
2022-12-16T04:36:54.113Z,7.16
2022-12-16T04:39:41.670Z,7.01
2022-12-16T04:42:29.231Z,5.44
2022-12-16T04:45:16.821Z,6.70
2022-12-16T04:48:04.566Z,5.51
2022-12-16T04:50:52.153Z,11.49
2022-12-16T04:53:39.734Z,5.48
2022-12-16T04:56:27.286Z,4.43
2022-12-16T04:59:14.863Z,8.68
2022-12-16T05:02:02.590Z,21.97
2022-12-16T05:04:50.348Z,19.79
2022-12-16T05:07:38.727Z,10.23
2022-12-16T05:10:26.482Z,7.18
2022-12-16T05:13:14.039Z,7.02
2022-12-16T05:16:01.702Z,7.76
2022-12-16T05:18:49.326Z,5.76
2022-12-16T05:21:36.881Z,3.97
2022-12-16T05:24:24.469Z,3.86
2022-12-16T05:27:12.016Z,4.14
2022-12-16T05:29:59.574Z,4.01
2022-12-16T05:32:47.149Z,5.36
2022-12-16T05:35:34.734Z,4.54
2022-12-16T05:38:22.302Z,4.16
2022-12-16T05:41:09.849Z,4.33
2022-12-16T05:43:57.433Z,4.62
2022-12-16T05:46:45.052Z,4.45
2022-12-16T05:49:34.699Z,4.17
2022-12-16T05:52:22.258Z,4.65
2022-12-16T05:55:09.819Z,4.73
2022-12-16T05:57:57.378Z,5.05
2022-12-16T06:00:44.957Z,4.93
2022-12-16T06:03:33.052Z,5.03
2022-12-16T06:06:21.055Z,5.04
2022-12-16T06:09:08.595Z,4.80
2022-12-16T06:11:56.170Z,4.93
2022-12-16T06:14:43.717Z,5.01
2022-12-16T06:17:31.263Z,4.92
2022-12-16T06:20:18.837Z,4.48
2022-12-16T06:23:06.385Z,3.85
2022-12-16T06:25:53.975Z,3.25
2022-12-16T06:28:45.712Z,2.88
2022-12-16T06:31:33.681Z,4.04
2022-12-16T06:34:21.258Z,4.65
2022-12-16T06:37:08.806Z,5.94
2022-12-16T06:39:56.374Z,5.24
2022-12-16T06:42:43.980Z,6.03
2022-12-16T06:45:34.633Z,5.96
2022-12-16T06:48:22.704Z,34.43
2022-12-16T06:51:10.291Z,40.38
2022-12-16T06:53:57.883Z,61.45
2022-12-16T06:56:45.423Z,40.57
2022-12-16T06:59:32.985Z,39.09
2022-12-16T07:02:22.005Z,33.07
2022-12-16T07:05:09.690Z,22.66
2022-12-16T07:07:57.260Z,19.06
2022-12-16T07:10:44.826Z,13.57
2022-12-16T07:13:32.831Z,10.74
2022-12-16T07:16:20.656Z,9.14
2022-12-16T07:19:08.235Z,6.91
2022-12-16T07:21:55.772Z,5.34
2022-12-16T07:24:43.357Z,4.75
2022-12-16T07:27:30.892Z,4.49
2022-12-16T07:30:18.464Z,4.77
2022-12-16T07:33:06.010Z,5.43
2022-12-16T07:35:53.594Z,5.45
2022-12-16T07:38:41.225Z,4.69
2022-12-16T07:41:28.770Z,3.86
2022-12-16T07:44:16.355Z,3.23
2022-12-16T07:47:03.938Z,3.55
2022-12-16T07:49:51.480Z,3.40
2022-12-16T07:52:44.207Z,5.29
2022-12-16T07:55:31.751Z,3.89
2022-12-16T07:58:19.310Z,2.85
2022-12-16T08:01:09.695Z,2.40
2022-12-16T08:03:57.676Z,2.15
2022-12-16T08:06:45.256Z,1.98
2022-12-16T08:09:32.876Z,1.95
2022-12-16T08:12:20.459Z,2.08
2022-12-16T08:15:08.036Z,1.89
2022-12-16T08:17:56.434Z,1.90
2022-12-16T08:20:44.034Z,1.84
2022-12-16T08:23:32.061Z,1.89
2022-12-16T08:26:19.842Z,2.49
2022-12-16T08:32:14.931Z,2.25
2022-12-16T08:35:02.495Z,3.11
2022-12-16T08:37:50.178Z,3.70
2022-12-16T08:40:38.553Z,3.90
2022-12-16T08:43:26.157Z,4.21
2022-12-16T08:46:13.769Z,4.92
2022-12-16T08:49:01.540Z,4.70
2022-12-16T08:51:49.133Z,4.77
2022-12-16T08:54:36.729Z,4.29
2022-12-16T08:57:24.296Z,4.97
2022-12-16T09:00:11.869Z,4.55
2022-12-16T09:02:59.643Z,4.73
2022-12-16T09:05:47.360Z,4.85
2022-12-16T09:08:34.943Z,4.41
2022-12-16T09:11:22.525Z,4.08
2022-12-16T09:14:10.095Z,3.54
2022-12-16T09:16:57.694Z,3.30
2022-12-16T09:19:45.272Z,3.40
2022-12-16T09:22:32.856Z,3.48
2022-12-16T09:25:20.420Z,2.85
2022-12-16T09:28:08.158Z,3.41
2022-12-16T09:30:56.409Z,3.05
2022-12-16T09:33:44.046Z,3.26
2022-12-16T09:36:31.694Z,3.33
2022-12-16T09:39:19.270Z,3.29
2022-12-16T09:42:06.841Z,3.07
2022-12-16T09:44:54.418Z,3.19
2022-12-16T09:47:43.063Z,3.08
2022-12-16T09:50:30.950Z,3.35
2022-12-16T09:53:18.523Z,3.07
2022-12-16T09:56:06.120Z,3.20
2022-12-16T09:58:53.710Z,2.87
2022-12-16T10:01:43.115Z,2.80
2022-12-16T10:04:30.741Z,2.72
2022-12-16T10:07:18.332Z,2.90
2022-12-16T10:10:05.910Z,2.51
2022-12-16T10:12:53.496Z,2.43
2022-12-16T10:15:41.117Z,2.10
2022-12-16T10:18:28.792Z,2.28
2022-12-16T10:21:16.478Z,2.22
2022-12-16T10:24:04.075Z,2.34
2022-12-16T10:26:51.691Z,2.10
2022-12-16T10:29:39.262Z,2.26
2022-12-16T10:32:26.846Z,2.74
2022-12-16T10:35:14.461Z,2.95
2022-12-16T10:38:02.026Z,3.09
2022-12-16T10:40:49.639Z,3.42
2022-12-16T10:43:37.759Z,3.29
2022-12-16T10:46:26.085Z,3.48
2022-12-16T10:49:13.762Z,3.41
2022-12-16T10:52:05.401Z,3.93
2022-12-16T10:54:56.042Z,3.99
2022-12-16T10:57:43.641Z,3.89
2022-12-16T11:00:31.221Z,3.98
2022-12-16T11:03:18.956Z,3.90
2022-12-16T11:06:06.607Z,3.53
2022-12-16T11:08:55.703Z,4.71
2022-12-16T11:11:43.417Z,6.62
2022-12-16T11:14:30.981Z,7.35
2022-12-16T11:17:18.575Z,7.24
2022-12-16T11:20:06.140Z,9.82
2022-12-16T11:22:53.761Z,11.21
2022-12-16T11:25:43.144Z,7.49
2022-12-16T11:28:30.703Z,4.34
2022-12-16T11:31:18.370Z,4.05
2022-12-16T11:34:06.017Z,4.43
2022-12-16T11:36:53.585Z,4.75
2022-12-16T11:39:41.993Z,5.43
2022-12-16T11:42:29.592Z,5.60
2022-12-16T11:45:17.140Z,6.80
2022-12-16T11:48:04.718Z,7.60
2022-12-16T11:50:52.303Z,7.39
2022-12-16T11:53:40.410Z,8.17
2022-12-16T11:56:28.051Z,9.21
2022-12-16T11:59:15.637Z,8.32
2022-12-16T12:02:03.289Z,7.47
2022-12-16T12:04:50.936Z,7.56
2022-12-16T12:07:44.218Z,7.81
2022-12-16T12:10:32.783Z,8.02
2022-12-16T12:13:20.468Z,8.21
2022-12-16T12:16:10.109Z,8.32
2022-12-16T12:18:57.740Z,8.51
2022-12-16T12:21:45.311Z,8.32
2022-12-16T12:24:32.889Z,9.02
2022-12-16T12:27:20.466Z,8.19
2022-12-16T12:30:13.015Z,7.58
2022-12-16T12:33:03.676Z,7.97
2022-12-16T12:35:51.247Z,7.79
2022-12-16T12:38:38.842Z,8.26
2022-12-16T12:41:26.429Z,7.89
2022-12-16T12:44:13.981Z,8.29
2022-12-16T12:47:01.621Z,8.55
2022-12-16T12:49:49.239Z,8.57
2022-12-16T12:52:36.817Z,8.79
2022-12-16T12:55:24.386Z,9.63
2022-12-16T12:58:11.964Z,9.85
2022-12-16T13:00:59.643Z,10.10
2022-12-16T13:03:47.333Z,10.34
2022-12-16T13:06:34.968Z,9.90
2022-12-16T13:09:22.536Z,9.35
2022-12-16T13:12:10.111Z,9.70
2022-12-16T13:14:57.707Z,9.97
2022-12-16T13:17:45.271Z,10.35
2022-12-16T13:20:32.843Z,10.52
2022-12-16T13:23:20.438Z,11.23
2022-12-16T13:26:08.019Z,15.40
2022-12-16T13:28:55.639Z,13.46
2022-12-16T13:31:43.230Z,11.03
2022-12-16T13:34:30.830Z,9.38
2022-12-16T13:37:25.855Z,9.82
2022-12-16T13:40:16.190Z,9.63
2022-12-16T13:43:03.795Z,11.26
2022-12-16T13:45:51.472Z,11.02
2022-12-16T13:48:39.107Z,11.97
2022-12-16T13:51:26.809Z,15.82
2022-12-16T13:54:14.372Z,21.92
2022-12-16T13:57:01.955Z,11.68
2022-12-16T13:59:49.564Z,11.58
2022-12-16T14:02:37.205Z,12.18
2022-12-16T14:05:24.907Z,12.45
2022-12-16T14:08:12.504Z,14.51
2022-12-16T14:11:02.113Z,15.73
2022-12-16T14:13:49.714Z,20.71
2022-12-16T14:16:37.304Z,12.16
2022-12-16T14:19:25.006Z,11.63
2022-12-16T14:22:12.571Z,12.64
2022-12-16T14:25:00.155Z,13.64
2022-12-16T14:27:47.711Z,14.65
2022-12-16T14:30:35.306Z,13.84
2022-12-16T14:33:22.919Z,13.16
2022-12-16T14:36:10.511Z,13.46
2022-12-16T14:38:58.070Z,14.08
2022-12-16T14:41:45.679Z,14.07
2022-12-16T14:44:33.256Z,14.93
2022-12-16T14:47:20.806Z,14.97
2022-12-16T14:50:08.387Z,16.22
2022-12-16T14:52:55.982Z,17.03
2022-12-16T14:55:43.583Z,17.06
2022-12-16T14:58:31.162Z,16.32
2022-12-16T15:01:18.988Z,17.00
2022-12-16T15:04:06.874Z,17.06
2022-12-16T15:06:54.655Z,16.14
2022-12-16T15:09:42.482Z,17.24
2022-12-16T15:12:30.087Z,17.73
2022-12-16T15:15:17.691Z,18.32
2022-12-16T15:18:05.268Z,18.56
2022-12-16T15:20:52.853Z,17.65
2022-12-16T15:23:40.462Z,19.32
2022-12-16T15:26:28.088Z,19.41
2022-12-16T15:29:15.689Z,19.36
2022-12-16T15:32:03.895Z,20.93
2022-12-16T15:34:51.562Z,21.05
2022-12-16T15:37:39.149Z,20.11
2022-12-16T15:40:26.738Z,20.48
2022-12-16T15:43:14.331Z,21.58
2022-12-16T15:46:01.955Z,21.49
2022-12-16T15:48:49.573Z,25.34
2022-12-16T15:51:37.192Z,26.94
2022-12-16T15:54:24.834Z,23.45
2022-12-16T15:57:12.516Z,26.70
2022-12-16T16:00:00.137Z,22.92
2022-12-16T16:02:47.940Z,22.30
2022-12-16T16:05:35.732Z,23.09
2022-12-16T16:08:23.312Z,23.89
2022-12-16T16:11:11.093Z,22.82
2022-12-16T16:14:05.141Z,23.73
2022-12-16T16:16:55.020Z,23.13
2022-12-16T16:19:42.602Z,23.17
2022-12-16T16:22:30.213Z,22.71
2022-12-16T16:25:17.814Z,23.71
2022-12-16T16:28:05.413Z,23.93
2022-12-16T16:30:53.051Z,24.26
2022-12-16T16:33:40.674Z,23.93
2022-12-16T16:36:28.235Z,24.86
2022-12-16T16:39:15.838Z,23.92
2022-12-16T16:42:03.426Z,23.27
2022-12-16T16:44:51.039Z,23.18
2022-12-16T16:47:38.608Z,24.24
2022-12-16T16:50:26.204Z,24.88
2022-12-16T16:53:13.799Z,25.06
2022-12-16T16:56:01.412Z,24.30
2022-12-16T16:58:49.028Z,23.06
2022-12-16T17:01:36.857Z,21.11
2022-12-16T17:04:24.658Z,19.57
2022-12-16T17:07:12.311Z,21.33
2022-12-16T17:09:59.943Z,22.05
2022-12-16T17:12:47.591Z,22.20
2022-12-16T17:15:35.247Z,22.98
2022-12-16T17:18:24.871Z,21.95
2022-12-16T17:21:12.458Z,22.94
2022-12-16T17:24:00.100Z,23.26
2022-12-16T17:26:47.705Z,23.76
2022-12-16T17:29:35.417Z,24.01
2022-12-16T17:32:22.994Z,25.39
2022-12-16T17:35:10.625Z,23.57
2022-12-16T17:37:58.210Z,25.49
2022-12-16T17:40:45.834Z,27.12
2022-12-16T17:43:33.884Z,27.15
2022-12-16T17:46:21.732Z,28.27
2022-12-16T17:49:09.343Z,26.59
2022-12-16T17:51:56.982Z,27.30
2022-12-16T17:54:44.591Z,25.17
2022-12-16T17:57:32.167Z,24.63
2022-12-16T18:00:19.781Z,24.07
2022-12-16T18:03:07.556Z,24.35
2022-12-16T18:07:47.230Z,26.29
2022-12-16T18:10:34.842Z,26.27
2022-12-16T18:13:22.472Z,26.61
2022-12-16T18:16:10.106Z,26.21
2022-12-16T18:18:57.764Z,26.57
2022-12-16T18:21:45.344Z,26.98
2022-12-16T18:24:32.919Z,26.65
2022-12-16T18:27:20.514Z,27.49
2022-12-16T18:30:08.140Z,27.24
2022-12-16T18:32:55.720Z,27.08
2022-12-16T18:35:43.703Z,29.89
2022-12-16T18:38:31.280Z,26.36
2022-12-16T18:41:18.875Z,26.34
2022-12-16T18:44:06.490Z,26.67
2022-12-16T18:46:54.086Z,27.49
2022-12-16T18:49:41.711Z,27.56
2022-12-16T18:52:29.302Z,28.18
2022-12-16T18:55:17.009Z,28.09
2022-12-16T18:58:16.601Z,27.93
2022-12-16T19:01:12.252Z,29.39
2022-12-16T19:03:59.871Z,30.02
2022-12-16T19:06:47.459Z,29.41
2022-12-16T19:09:35.031Z,28.05
2022-12-16T19:12:22.938Z,29.34
2022-12-16T19:15:10.542Z,28.35
2022-12-16T19:17:58.118Z,30.10
2022-12-16T19:20:45.721Z,31.82
2022-12-16T19:23:33.631Z,31.44
2022-12-16T19:26:21.517Z,32.70
2022-12-16T19:29:09.140Z,33.21
2022-12-16T19:31:56.955Z,32.76
2022-12-16T19:34:44.607Z,32.71
2022-12-16T19:37:32.215Z,34.99
2022-12-16T19:40:19.794Z,36.27
2022-12-16T19:43:07.393Z,37.55
2022-12-16T19:45:56.451Z,37.02
2022-12-16T19:48:44.219Z,37.21
2022-12-16T19:51:31.879Z,37.39
2022-12-16T19:54:19.513Z,37.32
2022-12-16T19:57:07.199Z,37.66
2022-12-16T19:59:54.792Z,40.04
2022-12-16T20:02:43.903Z,40.34
2022-12-16T20:05:32.627Z,39.39
2022-12-16T20:08:20.246Z,38.86
2022-12-16T20:11:07.872Z,37.07
2022-12-16T20:13:56.009Z,37.63
2022-12-16T20:16:43.824Z,38.78
2022-12-16T20:19:31.460Z,39.05
2022-12-16T20:22:19.050Z,39.83
2022-12-16T20:25:06.670Z,40.00
2022-12-16T20:27:54.273Z,40.84
2022-12-16T20:30:44.174Z,41.92
2022-12-16T20:33:31.779Z,39.88
2022-12-16T20:36:19.471Z,39.00
2022-12-16T20:39:07.054Z,39.79
2022-12-16T20:41:56.248Z,39.51
2022-12-16T20:44:44.034Z,40.84
2022-12-16T20:47:31.642Z,41.53
2022-12-16T20:50:19.225Z,41.28
2022-12-16T20:53:06.848Z,40.82
2022-12-16T20:59:01.983Z,42.01
2022-12-16T21:02:14.952Z,44.65
2022-12-16T21:04:57.102Z,44.35
2022-12-16T21:07:44.706Z,42.50
2022-12-16T21:10:32.410Z,41.89
2022-12-16T21:13:20.014Z,42.29
2022-12-16T21:16:07.638Z,41.47
2022-12-16T21:18:55.206Z,42.20
2022-12-16T21:21:44.246Z,41.33
2022-12-16T21:24:31.873Z,41.60
2022-12-16T21:27:19.514Z,41.61
2022-12-16T21:30:07.126Z,40.69
2022-12-16T21:32:54.951Z,41.03
2022-12-16T21:35:44.287Z,41.24
2022-12-16T21:38:31.914Z,41.08
2022-12-16T21:41:19.510Z,40.66
2022-12-16T21:44:07.109Z,39.85
2022-12-16T21:46:54.678Z,40.86
2022-12-16T21:49:43.018Z,41.80
2022-12-16T21:52:30.616Z,40.02
2022-12-16T21:55:18.220Z,40.88
2022-12-16T21:58:05.886Z,39.57
2022-12-16T22:00:57.408Z,40.35
2022-12-16T22:03:47.953Z,38.22
2022-12-16T22:06:35.568Z,39.31
2022-12-16T22:09:23.135Z,40.62
2022-12-16T22:12:10.748Z,38.42
2022-12-16T22:14:58.337Z,40.17
2022-12-16T22:17:45.958Z,37.86
2022-12-16T22:20:33.531Z,39.55
2022-12-16T22:23:27.962Z,40.16
2022-12-16T22:26:15.849Z,40.13
2022-12-16T22:29:03.536Z,41.98
2022-12-16T22:31:51.162Z,47.81
2022-12-16T22:34:39.581Z,43.79
2022-12-16T22:37:27.155Z,41.88
2022-12-16T22:40:14.782Z,39.29
2022-12-16T22:43:02.358Z,40.92
2022-12-16T22:45:50.041Z,39.26
2022-12-16T22:48:37.646Z,38.30
2022-12-16T22:51:25.266Z,37.72
2022-12-16T22:54:12.855Z,38.61
2022-12-16T22:57:00.470Z,36.11
2022-12-16T22:59:48.039Z,35.22
2022-12-16T23:02:35.689Z,36.21
2022-12-16T23:05:27.546Z,36.38
2022-12-16T23:08:15.709Z,36.87
2022-12-16T23:11:03.303Z,37.11
2022-12-16T23:13:50.900Z,35.94
2022-12-16T23:16:38.555Z,36.87
2022-12-16T23:19:26.193Z,36.26
2022-12-16T23:22:13.783Z,34.41
2022-12-16T23:25:01.385Z,32.94
2022-12-16T23:27:48.975Z,35.14
2022-12-16T23:30:36.558Z,34.75
2022-12-16T23:33:24.150Z,35.20
2022-12-16T23:36:11.754Z,32.99
2022-12-16T23:38:59.342Z,32.04
2022-12-16T23:41:46.921Z,31.75
2022-12-16T23:44:34.598Z,34.47
2022-12-16T23:47:22.196Z,30.45
2022-12-16T23:50:15.464Z,32.57
2022-12-16T23:53:03.483Z,32.71
2022-12-16T23:55:51.092Z,30.25
2022-12-16T23:58:39.453Z,31.17
